sensor_id;sensor_type;location;lat;lon;timestamp;P1;durP1;ratioP1;P2;durP2;ratioP2
65665;SDS011;52365;47.464;18.976;2023-03-14T00:00:13;10.88;;;6.80;;
65665;SDS011;52365;47.464;18.976;2023-03-14T00:00:50;9.95;;;6.40;;
65665;SDS011;52365;47.464;18.976;2023-03-14T00:01:26;11.43;;;6.70;;
65665;SDS011;52365;47.464;18.976;2023-03-14T00:02:02;10.77;;;6.97;;
65665;SDS011;52365;47.464;18.976;2023-03-14T00:02:38;10.02;;;6.60;;
65665;SDS011;52365;47.464;18.976;2023-03-14T00:03:14;11.63;;;6.68;;
65665;SDS011;52365;47.464;18.976;2023-03-14T00:03:51;12.85;;;6.62;;
65665;SDS011;52365;47.464;18.976;2023-03-14T00:04:27;10.18;;;6.60;;
65665;SDS011;52365;47.464;18.976;2023-03-14T00:05:03;11.52;;;6.68;;
65665;SDS011;52365;47.464;18.976;2023-03-14T00:05:42;10.68;;;6.62;;
65665;SDS011;52365;47.464;18.976;2023-03-14T00:06:18;10.60;;;6.70;;
65665;SDS011;52365;47.464;18.976;2023-03-14T00:06:54;10.30;;;6.72;;
65665;SDS011;52365;47.464;18.976;2023-03-14T00:07:30;10.05;;;6.57;;
65665;SDS011;52365;47.464;18.976;2023-03-14T00:08:09;11.23;;;7.15;;
65665;SDS011;52365;47.464;18.976;2023-03-14T00:08:45;10.68;;;6.55;;
65665;SDS011;52365;47.464;18.976;2023-03-14T00:09:23;11.55;;;6.68;;
65665;SDS011;52365;47.464;18.976;2023-03-14T00:09:59;12.93;;;6.93;;
65665;SDS011;52365;47.464;18.976;2023-03-14T00:10:35;11.12;;;6.78;;
65665;SDS011;52365;47.464;18.976;2023-03-14T00:11:18;10.68;;;6.90;;
65665;SDS011;52365;47.464;18.976;2023-03-14T00:11:56;11.48;;;6.93;;
65665;SDS011;52365;47.464;18.976;2023-03-14T00:12:32;10.90;;;6.70;;
65665;SDS011;52365;47.464;18.976;2023-03-14T00:13:08;10.05;;;6.85;;
65665;SDS011;52365;47.464;18.976;2023-03-14T00:13:50;10.13;;;6.62;;
65665;SDS011;52365;47.464;18.976;2023-03-14T00:14:27;9.75;;;6.65;;
65665;SDS011;52365;47.464;18.976;2023-03-14T00:15:03;10.40;;;6.45;;
65665;SDS011;52365;47.464;18.976;2023-03-14T00:15:42;10.57;;;6.62;;
65665;SDS011;52365;47.464;18.976;2023-03-14T00:16:18;9.55;;;6.28;;
65665;SDS011;52365;47.464;18.976;2023-03-14T00:16:55;10.43;;;6.53;;
65665;SDS011;52365;47.464;18.976;2023-03-14T00:17:31;10.18;;;6.80;;
65665;SDS011;52365;47.464;18.976;2023-03-14T00:18:07;11.10;;;6.75;;
65665;SDS011;52365;47.464;18.976;2023-03-14T00:18:43;10.73;;;6.85;;
65665;SDS011;52365;47.464;18.976;2023-03-14T00:19:19;11.45;;;7.25;;
65665;SDS011;52365;47.464;18.976;2023-03-14T00:19:56;11.15;;;7.00;;
65665;SDS011;52365;47.464;18.976;2023-03-14T00:20:32;10.30;;;6.40;;
65665;SDS011;52365;47.464;18.976;2023-03-14T00:21:09;10.85;;;6.72;;
65665;SDS011;52365;47.464;18.976;2023-03-14T00:21:46;10.15;;;6.12;;
65665;SDS011;52365;47.464;18.976;2023-03-14T00:22:22;10.23;;;6.60;;
65665;SDS011;52365;47.464;18.976;2023-03-14T00:22:58;10.82;;;6.93;;
65665;SDS011;52365;47.464;18.976;2023-03-14T00:23:35;11.20;;;6.78;;
65665;SDS011;52365;47.464;18.976;2023-03-14T00:24:12;9.65;;;6.40;;
65665;SDS011;52365;47.464;18.976;2023-03-14T00:24:49;10.68;;;6.50;;
65665;SDS011;52365;47.464;18.976;2023-03-14T00:25:26;9.70;;;6.62;;
65665;SDS011;52365;47.464;18.976;2023-03-14T00:26:12;10.57;;;6.82;;
65665;SDS011;52365;47.464;18.976;2023-03-14T00:26:50;10.20;;;7.00;;
65665;SDS011;52365;47.464;18.976;2023-03-14T00:27:26;9.63;;;6.60;;
65665;SDS011;52365;47.464;18.976;2023-03-14T00:28:02;11.55;;;6.75;;
65665;SDS011;52365;47.464;18.976;2023-03-14T00:28:40;11.27;;;7.05;;
65665;SDS011;52365;47.464;18.976;2023-03-14T00:29:17;12.15;;;7.10;;
65665;SDS011;52365;47.464;18.976;2023-03-14T00:29:53;10.30;;;6.65;;
65665;SDS011;52365;47.464;18.976;2023-03-14T00:30:29;11.15;;;7.18;;
65665;SDS011;52365;47.464;18.976;2023-03-14T00:31:06;11.80;;;6.75;;
65665;SDS011;52365;47.464;18.976;2023-03-14T00:31:43;9.77;;;6.62;;
65665;SDS011;52365;47.464;18.976;2023-03-14T00:32:19;11.52;;;6.65;;
65665;SDS011;52365;47.464;18.976;2023-03-14T00:32:55;10.73;;;6.75;;
65665;SDS011;52365;47.464;18.976;2023-03-14T00:33:31;11.25;;;6.87;;
65665;SDS011;52365;47.464;18.976;2023-03-14T00:34:07;11.07;;;6.53;;
65665;SDS011;52365;47.464;18.976;2023-03-14T00:34:43;10.02;;;6.82;;
65665;SDS011;52365;47.464;18.976;2023-03-14T00:35:19;10.30;;;6.95;;
65665;SDS011;52365;47.464;18.976;2023-03-14T00:35:55;10.35;;;6.75;;
65665;SDS011;52365;47.464;18.976;2023-03-14T00:36:35;10.48;;;6.45;;
65665;SDS011;52365;47.464;18.976;2023-03-14T00:37:11;12.20;;;6.80;;
65665;SDS011;52365;47.464;18.976;2023-03-14T00:37:49;12.40;;;6.80;;
65665;SDS011;52365;47.464;18.976;2023-03-14T00:38:26;11.25;;;6.60;;
65665;SDS011;52365;47.464;18.976;2023-03-14T00:39:02;11.43;;;6.68;;
65665;SDS011;52365;47.464;18.976;2023-03-14T00:39:38;10.63;;;6.75;;
65665;SDS011;52365;47.464;18.976;2023-03-14T00:40:15;11.82;;;6.60;;
65665;SDS011;52365;47.464;18.976;2023-03-14T00:40:51;11.48;;;6.95;;
65665;SDS011;52365;47.464;18.976;2023-03-14T00:41:28;9.55;;;6.32;;
65665;SDS011;52365;47.464;18.976;2023-03-14T00:42:04;10.05;;;6.55;;
65665;SDS011;52365;47.464;18.976;2023-03-14T00:42:40;11.18;;;7.20;;
65665;SDS011;52365;47.464;18.976;2023-03-14T00:43:16;11.77;;;7.03;;
65665;SDS011;52365;47.464;18.976;2023-03-14T00:43:52;11.02;;;7.00;;
65665;SDS011;52365;47.464;18.976;2023-03-14T00:44:29;12.65;;;7.10;;
65665;SDS011;52365;47.464;18.976;2023-03-14T00:45:05;11.63;;;7.30;;
65665;SDS011;52365;47.464;18.976;2023-03-14T00:45:43;11.95;;;6.70;;
65665;SDS011;52365;47.464;18.976;2023-03-14T00:46:19;11.57;;;7.05;;
65665;SDS011;52365;47.464;18.976;2023-03-14T00:46:55;10.07;;;6.93;;
65665;SDS011;52365;47.464;18.976;2023-03-14T00:47:32;12.43;;;7.32;;
65665;SDS011;52365;47.464;18.976;2023-03-14T00:48:08;11.50;;;6.62;;
65665;SDS011;52365;47.464;18.976;2023-03-14T00:48:45;11.32;;;7.05;;
65665;SDS011;52365;47.464;18.976;2023-03-14T00:49:22;11.10;;;6.70;;
65665;SDS011;52365;47.464;18.976;2023-03-14T00:49:58;10.10;;;6.72;;
65665;SDS011;52365;47.464;18.976;2023-03-14T00:50:34;11.48;;;6.62;;
65665;SDS011;52365;47.464;18.976;2023-03-14T00:51:11;12.15;;;7.20;;
65665;SDS011;52365;47.464;18.976;2023-03-14T00:51:49;10.88;;;6.60;;
65665;SDS011;52365;47.464;18.976;2023-03-14T00:52:27;9.75;;;7.20;;
65665;SDS011;52365;47.464;18.976;2023-03-14T00:53:03;11.68;;;6.90;;
65665;SDS011;52365;47.464;18.976;2023-03-14T00:53:39;11.35;;;6.82;;
65665;SDS011;52365;47.464;18.976;2023-03-14T00:54:15;10.93;;;6.55;;
65665;SDS011;52365;47.464;18.976;2023-03-14T00:54:51;11.07;;;6.93;;
65665;SDS011;52365;47.464;18.976;2023-03-14T00:55:27;12.02;;;6.82;;
65665;SDS011;52365;47.464;18.976;2023-03-14T00:56:04;10.68;;;6.80;;
65665;SDS011;52365;47.464;18.976;2023-03-14T00:56:41;11.50;;;7.07;;
65665;SDS011;52365;47.464;18.976;2023-03-14T00:57:17;12.55;;;7.10;;
65665;SDS011;52365;47.464;18.976;2023-03-14T00:57:53;10.48;;;6.82;;
65665;SDS011;52365;47.464;18.976;2023-03-14T00:58:29;10.23;;;7.03;;
65665;SDS011;52365;47.464;18.976;2023-03-14T00:59:05;10.68;;;7.10;;
65665;SDS011;52365;47.464;18.976;2023-03-14T00:59:41;12.45;;;7.50;;
65665;SDS011;52365;47.464;18.976;2023-03-14T01:00:18;9.85;;;6.70;;
65665;SDS011;52365;47.464;18.976;2023-03-14T01:00:54;10.13;;;6.50;;
65665;SDS011;52365;47.464;18.976;2023-03-14T01:01:30;10.98;;;6.43;;
65665;SDS011;52365;47.464;18.976;2023-03-14T01:02:06;10.48;;;6.62;;
65665;SDS011;52365;47.464;18.976;2023-03-14T01:02:43;11.43;;;6.85;;
65665;SDS011;52365;47.464;18.976;2023-03-14T01:03:19;10.82;;;6.75;;
65665;SDS011;52365;47.464;18.976;2023-03-14T01:03:55;11.93;;;7.05;;
65665;SDS011;52365;47.464;18.976;2023-03-14T01:04:31;11.52;;;6.68;;
65665;SDS011;52365;47.464;18.976;2023-03-14T01:05:07;9.98;;;6.68;;
65665;SDS011;52365;47.464;18.976;2023-03-14T01:05:45;12.85;;;7.20;;
65665;SDS011;52365;47.464;18.976;2023-03-14T01:06:23;10.10;;;6.70;;
65665;SDS011;52365;47.464;18.976;2023-03-14T01:07:01;11.93;;;6.68;;
65665;SDS011;52365;47.464;18.976;2023-03-14T01:07:37;10.55;;;7.20;;
65665;SDS011;52365;47.464;18.976;2023-03-14T01:08:13;10.95;;;6.70;;
65665;SDS011;52365;47.464;18.976;2023-03-14T01:08:49;10.90;;;6.87;;
65665;SDS011;52365;47.464;18.976;2023-03-14T01:09:25;10.65;;;7.47;;
65665;SDS011;52365;47.464;18.976;2023-03-14T01:10:02;11.52;;;6.95;;
65665;SDS011;52365;47.464;18.976;2023-03-14T01:10:40;11.98;;;6.97;;
65665;SDS011;52365;47.464;18.976;2023-03-14T01:11:18;10.73;;;6.72;;
65665;SDS011;52365;47.464;18.976;2023-03-14T01:11:56;12.13;;;7.05;;
65665;SDS011;52365;47.464;18.976;2023-03-14T01:12:32;10.75;;;6.75;;
65665;SDS011;52365;47.464;18.976;2023-03-14T01:13:08;10.52;;;6.72;;
65665;SDS011;52365;47.464;18.976;2023-03-14T01:13:45;11.48;;;7.00;;
65665;SDS011;52365;47.464;18.976;2023-03-14T01:14:21;11.10;;;7.03;;
65665;SDS011;52365;47.464;18.976;2023-03-14T01:14:57;13.38;;;7.22;;
65665;SDS011;52365;47.464;18.976;2023-03-14T01:15:34;11.05;;;6.75;;
65665;SDS011;52365;47.464;18.976;2023-03-14T01:16:11;10.35;;;6.90;;
65665;SDS011;52365;47.464;18.976;2023-03-14T01:16:49;9.68;;;6.80;;
65665;SDS011;52365;47.464;18.976;2023-03-14T01:17:25;9.85;;;7.05;;
65665;SDS011;52365;47.464;18.976;2023-03-14T01:18:01;10.27;;;6.60;;
65665;SDS011;52365;47.464;18.976;2023-03-14T01:18:37;11.60;;;7.47;;
65665;SDS011;52365;47.464;18.976;2023-03-14T01:19:15;11.18;;;7.05;;
65665;SDS011;52365;47.464;18.976;2023-03-14T01:19:51;10.70;;;6.68;;
65665;SDS011;52365;47.464;18.976;2023-03-14T01:20:27;12.68;;;7.15;;
65665;SDS011;52365;47.464;18.976;2023-03-14T01:21:04;11.25;;;7.37;;
65665;SDS011;52365;47.464;18.976;2023-03-14T01:21:47;11.90;;;6.95;;
65665;SDS011;52365;47.464;18.976;2023-03-14T01:22:23;12.52;;;6.82;;
65665;SDS011;52365;47.464;18.976;2023-03-14T01:22:59;10.77;;;7.05;;
65665;SDS011;52365;47.464;18.976;2023-03-14T01:23:35;10.60;;;6.93;;
65665;SDS011;52365;47.464;18.976;2023-03-14T01:24:11;10.68;;;6.72;;
65665;SDS011;52365;47.464;18.976;2023-03-14T01:24:47;11.00;;;6.87;;
65665;SDS011;52365;47.464;18.976;2023-03-14T01:25:24;11.40;;;7.15;;
65665;SDS011;52365;47.464;18.976;2023-03-14T01:26:00;10.43;;;7.20;;
65665;SDS011;52365;47.464;18.976;2023-03-14T01:26:36;11.70;;;7.30;;
65665;SDS011;52365;47.464;18.976;2023-03-14T01:27:12;10.30;;;6.85;;
65665;SDS011;52365;47.464;18.976;2023-03-14T01:27:48;10.10;;;7.12;;
65665;SDS011;52365;47.464;18.976;2023-03-14T01:28:24;9.98;;;6.80;;
65665;SDS011;52365;47.464;18.976;2023-03-14T01:29:01;12.85;;;7.30;;
65665;SDS011;52365;47.464;18.976;2023-03-14T01:29:37;10.88;;;7.37;;
65665;SDS011;52365;47.464;18.976;2023-03-14T01:30:13;11.75;;;7.18;;
65665;SDS011;52365;47.464;18.976;2023-03-14T01:30:49;11.30;;;7.15;;
65665;SDS011;52365;47.464;18.976;2023-03-14T01:31:26;11.50;;;7.00;;
65665;SDS011;52365;47.464;18.976;2023-03-14T01:32:02;10.20;;;6.90;;
65665;SDS011;52365;47.464;18.976;2023-03-14T01:32:38;12.18;;;7.35;;
65665;SDS011;52365;47.464;18.976;2023-03-14T01:33:15;12.00;;;7.25;;
65665;SDS011;52365;47.464;18.976;2023-03-14T01:33:51;13.52;;;7.30;;
65665;SDS011;52365;47.464;18.976;2023-03-14T01:34:27;13.05;;;7.78;;
65665;SDS011;52365;47.464;18.976;2023-03-14T01:35:04;11.82;;;7.25;;
65665;SDS011;52365;47.464;18.976;2023-03-14T01:35:40;11.20;;;7.05;;
65665;SDS011;52365;47.464;18.976;2023-03-14T01:36:16;10.35;;;7.20;;
65665;SDS011;52365;47.464;18.976;2023-03-14T01:36:52;10.60;;;7.40;;
65665;SDS011;52365;47.464;18.976;2023-03-14T01:37:28;12.90;;;7.40;;
65665;SDS011;52365;47.464;18.976;2023-03-14T01:38:04;11.63;;;7.03;;
65665;SDS011;52365;47.464;18.976;2023-03-14T01:38:40;12.10;;;7.40;;
65665;SDS011;52365;47.464;18.976;2023-03-14T01:39:16;10.82;;;7.28;;
65665;SDS011;52365;47.464;18.976;2023-03-14T01:39:52;11.52;;;7.37;;
65665;SDS011;52365;47.464;18.976;2023-03-14T01:40:28;13.35;;;7.10;;
65665;SDS011;52365;47.464;18.976;2023-03-14T01:41:05;10.88;;;7.00;;
65665;SDS011;52365;47.464;18.976;2023-03-14T01:41:43;10.85;;;7.28;;
65665;SDS011;52365;47.464;18.976;2023-03-14T01:42:19;11.23;;;7.43;;
65665;SDS011;52365;47.464;18.976;2023-03-14T01:42:58;12.27;;;7.53;;
65665;SDS011;52365;47.464;18.976;2023-03-14T01:43:48;12.15;;;7.45;;
65665;SDS011;52365;47.464;18.976;2023-03-14T01:44:24;10.88;;;7.28;;
65665;SDS011;52365;47.464;18.976;2023-03-14T01:45:01;11.95;;;7.20;;
65665;SDS011;52365;47.464;18.976;2023-03-14T01:46:45;11.25;;;7.18;;
65665;SDS011;52365;47.464;18.976;2023-03-14T01:47:22;12.80;;;7.22;;
65665;SDS011;52365;47.464;18.976;2023-03-14T01:47:58;11.00;;;7.40;;
65665;SDS011;52365;47.464;18.976;2023-03-14T01:49:29;11.02;;;7.20;;
65665;SDS011;52365;47.464;18.976;2023-03-14T01:50:10;11.77;;;6.90;;
65665;SDS011;52365;47.464;18.976;2023-03-14T01:50:47;12.70;;;7.70;;
65665;SDS011;52365;47.464;18.976;2023-03-14T01:51:28;12.60;;;7.78;;
65665;SDS011;52365;47.464;18.976;2023-03-14T01:52:13;11.60;;;7.05;;
65665;SDS011;52365;47.464;18.976;2023-03-14T01:52:54;11.60;;;7.53;;
65665;SDS011;52365;47.464;18.976;2023-03-14T01:53:31;12.90;;;7.55;;
65665;SDS011;52365;47.464;18.976;2023-03-14T01:54:10;11.75;;;7.28;;
65665;SDS011;52365;47.464;18.976;2023-03-14T01:55:06;11.27;;;7.25;;
65665;SDS011;52365;47.464;18.976;2023-03-14T01:55:48;11.35;;;7.05;;
65665;SDS011;52365;47.464;18.976;2023-03-14T01:56:25;12.63;;;7.22;;
65665;SDS011;52365;47.464;18.976;2023-03-14T01:57:08;13.32;;;7.75;;
65665;SDS011;52365;47.464;18.976;2023-03-14T01:57:54;11.52;;;7.45;;
65665;SDS011;52365;47.464;18.976;2023-03-14T01:58:35;11.65;;;7.20;;
65665;SDS011;52365;47.464;18.976;2023-03-14T01:59:12;11.52;;;7.55;;
65665;SDS011;52365;47.464;18.976;2023-03-14T02:00:00;13.88;;;7.62;;
65665;SDS011;52365;47.464;18.976;2023-03-14T02:00:44;12.98;;;7.68;;
65665;SDS011;52365;47.464;18.976;2023-03-14T02:01:21;10.68;;;7.43;;
65665;SDS011;52365;47.464;18.976;2023-03-14T02:02:02;11.82;;;7.72;;
65665;SDS011;52365;47.464;18.976;2023-03-14T02:02:44;13.38;;;7.90;;
65665;SDS011;52365;47.464;18.976;2023-03-14T02:03:22;10.82;;;7.18;;
65665;SDS011;52365;47.464;18.976;2023-03-14T02:04:02;11.90;;;7.22;;
65665;SDS011;52365;47.464;18.976;2023-03-14T02:04:41;13.55;;;7.40;;
65665;SDS011;52365;47.464;18.976;2023-03-14T02:05:19;13.88;;;7.85;;
65665;SDS011;52365;47.464;18.976;2023-03-14T02:06:01;10.73;;;7.55;;
65665;SDS011;52365;47.464;18.976;2023-03-14T02:07:03;12.10;;;7.50;;
65665;SDS011;52365;47.464;18.976;2023-03-14T02:07:52;12.63;;;7.65;;
65665;SDS011;52365;47.464;18.976;2023-03-14T02:08:29;11.68;;;7.62;;
65665;SDS011;52365;47.464;18.976;2023-03-14T02:09:06;13.38;;;7.62;;
65665;SDS011;52365;47.464;18.976;2023-03-14T02:09:43;11.85;;;7.70;;
65665;SDS011;52365;47.464;18.976;2023-03-14T02:10:21;11.32;;;7.47;;
65665;SDS011;52365;47.464;18.976;2023-03-14T02:11:00;13.98;;;7.90;;
65665;SDS011;52365;47.464;18.976;2023-03-14T02:11:36;11.38;;;7.40;;
65665;SDS011;52365;47.464;18.976;2023-03-14T02:12:14;12.63;;;8.20;;
65665;SDS011;52365;47.464;18.976;2023-03-14T02:12:52;12.75;;;7.60;;
65665;SDS011;52365;47.464;18.976;2023-03-14T02:13:31;11.93;;;7.47;;
65665;SDS011;52365;47.464;18.976;2023-03-14T02:14:07;10.95;;;7.43;;
65665;SDS011;52365;47.464;18.976;2023-03-14T02:14:50;11.35;;;7.97;;
65665;SDS011;52365;47.464;18.976;2023-03-14T02:15:26;13.25;;;7.97;;
65665;SDS011;52365;47.464;18.976;2023-03-14T02:16:02;11.88;;;7.20;;
65665;SDS011;52365;47.464;18.976;2023-03-14T02:16:38;11.60;;;7.70;;
65665;SDS011;52365;47.464;18.976;2023-03-14T02:17:16;12.25;;;7.60;;
65665;SDS011;52365;47.464;18.976;2023-03-14T02:17:54;11.95;;;7.62;;
65665;SDS011;52365;47.464;18.976;2023-03-14T02:18:32;12.37;;;7.78;;
65665;SDS011;52365;47.464;18.976;2023-03-14T02:19:08;12.77;;;7.85;;
65665;SDS011;52365;47.464;18.976;2023-03-14T02:21:46;12.77;;;7.62;;
65665;SDS011;52365;47.464;18.976;2023-03-14T02:22:35;11.30;;;7.22;;
65665;SDS011;52365;47.464;18.976;2023-03-14T02:23:14;12.30;;;7.37;;
65665;SDS011;52365;47.464;18.976;2023-03-14T02:25:56;10.93;;;7.35;;
65665;SDS011;52365;47.464;18.976;2023-03-14T02:26:38;11.73;;;7.40;;
65665;SDS011;52365;47.464;18.976;2023-03-14T02:27:19;13.62;;;7.87;;
65665;SDS011;52365;47.464;18.976;2023-03-14T02:27:56;11.30;;;7.70;;
65665;SDS011;52365;47.464;18.976;2023-03-14T02:28:33;11.85;;;7.80;;
65665;SDS011;52365;47.464;18.976;2023-03-14T02:29:09;13.68;;;7.72;;
65665;SDS011;52365;47.464;18.976;2023-03-14T02:29:49;10.38;;;7.30;;
65665;SDS011;52365;47.464;18.976;2023-03-14T02:30:27;12.80;;;7.57;;
65665;SDS011;52365;47.464;18.976;2023-03-14T02:31:06;10.77;;;7.22;;
65665;SDS011;52365;47.464;18.976;2023-03-14T02:31:44;11.18;;;7.40;;
65665;SDS011;52365;47.464;18.976;2023-03-14T02:32:20;12.57;;;7.30;;
65665;SDS011;52365;47.464;18.976;2023-03-14T02:33:00;12.75;;;7.37;;
65665;SDS011;52365;47.464;18.976;2023-03-14T02:33:39;11.70;;;7.32;;
65665;SDS011;52365;47.464;18.976;2023-03-14T02:34:16;11.93;;;7.60;;
65665;SDS011;52365;47.464;18.976;2023-03-14T02:34:54;13.52;;;7.80;;
65665;SDS011;52365;47.464;18.976;2023-03-14T02:36:44;11.82;;;7.60;;
65665;SDS011;52365;47.464;18.976;2023-03-14T02:37:21;11.35;;;7.70;;
65665;SDS011;52365;47.464;18.976;2023-03-14T02:39:44;11.75;;;7.60;;
65665;SDS011;52365;47.464;18.976;2023-03-14T02:40:21;11.52;;;7.50;;
65665;SDS011;52365;47.464;18.976;2023-03-14T02:40:57;12.45;;;7.72;;
65665;SDS011;52365;47.464;18.976;2023-03-14T02:41:33;10.77;;;7.55;;
65665;SDS011;52365;47.464;18.976;2023-03-14T02:42:09;11.27;;;7.55;;
65665;SDS011;52365;47.464;18.976;2023-03-14T02:42:46;11.77;;;7.40;;
65665;SDS011;52365;47.464;18.976;2023-03-14T02:43:23;13.60;;;7.70;;
65665;SDS011;52365;47.464;18.976;2023-03-14T02:43:59;12.07;;;7.80;;
65665;SDS011;52365;47.464;18.976;2023-03-14T02:44:35;12.55;;;7.53;;
65665;SDS011;52365;47.464;18.976;2023-03-14T02:45:47;12.37;;;8.07;;
65665;SDS011;52365;47.464;18.976;2023-03-14T02:46:25;12.10;;;7.53;;
65665;SDS011;52365;47.464;18.976;2023-03-14T02:47:02;11.55;;;7.72;;
65665;SDS011;52365;47.464;18.976;2023-03-14T02:47:42;12.60;;;8.20;;
65665;SDS011;52365;47.464;18.976;2023-03-14T02:48:21;12.55;;;8.23;;
65665;SDS011;52365;47.464;18.976;2023-03-14T02:49:02;11.07;;;7.60;;
65665;SDS011;52365;47.464;18.976;2023-03-14T02:49:40;11.12;;;7.55;;
65665;SDS011;52365;47.464;18.976;2023-03-14T02:50:17;12.73;;;8.00;;
65665;SDS011;52365;47.464;18.976;2023-03-14T02:50:57;12.13;;;7.85;;
65665;SDS011;52365;47.464;18.976;2023-03-14T02:51:34;13.65;;;7.90;;
65665;SDS011;52365;47.464;18.976;2023-03-14T02:52:11;11.05;;;7.68;;
65665;SDS011;52365;47.464;18.976;2023-03-14T02:52:47;12.05;;;8.02;;
65665;SDS011;52365;47.464;18.976;2023-03-14T02:53:25;12.30;;;8.10;;
65665;SDS011;52365;47.464;18.976;2023-03-14T02:54:07;10.27;;;7.62;;
65665;SDS011;52365;47.464;18.976;2023-03-14T02:54:43;13.05;;;8.07;;
65665;SDS011;52365;47.464;18.976;2023-03-14T02:55:22;11.38;;;7.50;;
65665;SDS011;52365;47.464;18.976;2023-03-14T02:55:59;11.32;;;7.65;;
65665;SDS011;52365;47.464;18.976;2023-03-14T02:56:36;12.93;;;7.68;;
65665;SDS011;52365;47.464;18.976;2023-03-14T02:57:12;11.65;;;7.68;;
65665;SDS011;52365;47.464;18.976;2023-03-14T02:57:48;11.98;;;7.53;;
65665;SDS011;52365;47.464;18.976;2023-03-14T02:58:26;12.98;;;7.68;;
65665;SDS011;52365;47.464;18.976;2023-03-14T02:59:03;14.75;;;8.57;;
65665;SDS011;52365;47.464;18.976;2023-03-14T02:59:40;12.50;;;7.43;;
65665;SDS011;52365;47.464;18.976;2023-03-14T03:00:16;12.18;;;7.87;;
65665;SDS011;52365;47.464;18.976;2023-03-14T03:00:53;12.13;;;7.95;;
65665;SDS011;52365;47.464;18.976;2023-03-14T03:01:29;10.75;;;7.35;;
65665;SDS011;52365;47.464;18.976;2023-03-14T03:02:05;11.05;;;7.75;;
65665;SDS011;52365;47.464;18.976;2023-03-14T03:02:41;12.60;;;7.97;;
65665;SDS011;52365;47.464;18.976;2023-03-14T03:03:17;11.70;;;7.78;;
65665;SDS011;52365;47.464;18.976;2023-03-14T03:03:54;12.77;;;7.40;;
65665;SDS011;52365;47.464;18.976;2023-03-14T03:04:30;12.48;;;7.68;;
65665;SDS011;52365;47.464;18.976;2023-03-14T03:05:06;14.90;;;8.00;;
65665;SDS011;52365;47.464;18.976;2023-03-14T03:05:42;12.45;;;7.82;;
65665;SDS011;52365;47.464;18.976;2023-03-14T03:06:19;11.05;;;7.40;;
65665;SDS011;52365;47.464;18.976;2023-03-14T03:06:55;12.45;;;7.70;;
65665;SDS011;52365;47.464;18.976;2023-03-14T03:07:31;12.18;;;7.60;;
65665;SDS011;52365;47.464;18.976;2023-03-14T03:08:08;13.40;;;7.93;;
65665;SDS011;52365;47.464;18.976;2023-03-14T03:08:44;12.80;;;7.45;;
65665;SDS011;52365;47.464;18.976;2023-03-14T03:09:20;11.23;;;7.65;;
65665;SDS011;52365;47.464;18.976;2023-03-14T03:09:56;12.85;;;8.40;;
65665;SDS011;52365;47.464;18.976;2023-03-14T03:10:32;13.07;;;7.70;;
65665;SDS011;52365;47.464;18.976;2023-03-14T03:11:08;12.57;;;7.50;;
65665;SDS011;52365;47.464;18.976;2023-03-14T03:11:44;12.00;;;7.93;;
65665;SDS011;52365;47.464;18.976;2023-03-14T03:12:20;11.23;;;7.50;;
65665;SDS011;52365;47.464;18.976;2023-03-14T03:12:56;12.40;;;7.85;;
65665;SDS011;52365;47.464;18.976;2023-03-14T03:13:33;11.63;;;7.53;;
65665;SDS011;52365;47.464;18.976;2023-03-14T03:14:09;12.85;;;7.82;;
65665;SDS011;52365;47.464;18.976;2023-03-14T03:14:45;12.45;;;7.85;;
65665;SDS011;52365;47.464;18.976;2023-03-14T03:15:21;10.68;;;7.55;;
65665;SDS011;52365;47.464;18.976;2023-03-14T03:15:58;13.05;;;8.13;;
65665;SDS011;52365;47.464;18.976;2023-03-14T03:16:34;12.75;;;7.87;;
65665;SDS011;52365;47.464;18.976;2023-03-14T03:17:10;12.65;;;7.80;;
65665;SDS011;52365;47.464;18.976;2023-03-14T03:17:46;12.77;;;7.97;;
65665;SDS011;52365;47.464;18.976;2023-03-14T03:18:22;11.80;;;7.78;;
65665;SDS011;52365;47.464;18.976;2023-03-14T03:18:58;12.85;;;7.40;;
65665;SDS011;52365;47.464;18.976;2023-03-14T03:19:34;12.90;;;7.60;;
65665;SDS011;52365;47.464;18.976;2023-03-14T03:20:10;12.00;;;7.82;;
65665;SDS011;52365;47.464;18.976;2023-03-14T03:20:47;11.85;;;7.50;;
65665;SDS011;52365;47.464;18.976;2023-03-14T03:21:23;12.45;;;7.90;;
65665;SDS011;52365;47.464;18.976;2023-03-14T03:21:59;11.35;;;7.57;;
65665;SDS011;52365;47.464;18.976;2023-03-14T03:22:36;12.93;;;7.57;;
65665;SDS011;52365;47.464;18.976;2023-03-14T03:23:12;13.52;;;7.80;;
65665;SDS011;52365;47.464;18.976;2023-03-14T03:23:49;10.45;;;7.20;;
65665;SDS011;52365;47.464;18.976;2023-03-14T03:24:26;13.18;;;7.85;;
65665;SDS011;52365;47.464;18.976;2023-03-14T03:25:02;10.98;;;7.53;;
65665;SDS011;52365;47.464;18.976;2023-03-14T03:25:40;11.65;;;7.93;;
65665;SDS011;52365;47.464;18.976;2023-03-14T03:26:16;11.52;;;7.45;;
65665;SDS011;52365;47.464;18.976;2023-03-14T03:26:52;10.25;;;7.43;;
65665;SDS011;52365;47.464;18.976;2023-03-14T03:27:32;10.85;;;7.60;;
65665;SDS011;52365;47.464;18.976;2023-03-14T03:28:09;12.10;;;7.40;;
65665;SDS011;52365;47.464;18.976;2023-03-14T03:28:45;9.77;;;7.20;;
65665;SDS011;52365;47.464;18.976;2023-03-14T03:29:21;12.05;;;7.50;;
65665;SDS011;52365;47.464;18.976;2023-03-14T03:29:57;13.25;;;7.75;;
65665;SDS011;52365;47.464;18.976;2023-03-14T03:30:37;12.32;;;7.60;;
65665;SDS011;52365;47.464;18.976;2023-03-14T03:31:14;11.30;;;7.35;;
65665;SDS011;52365;47.464;18.976;2023-03-14T03:31:51;12.30;;;8.13;;
65665;SDS011;52365;47.464;18.976;2023-03-14T03:32:27;12.00;;;7.62;;
65665;SDS011;52365;47.464;18.976;2023-03-14T03:33:03;11.63;;;7.45;;
65665;SDS011;52365;47.464;18.976;2023-03-14T03:33:39;11.85;;;7.53;;
65665;SDS011;52365;47.464;18.976;2023-03-14T03:34:15;11.77;;;7.43;;
65665;SDS011;52365;47.464;18.976;2023-03-14T03:34:51;11.48;;;7.50;;
65665;SDS011;52365;47.464;18.976;2023-03-14T03:35:28;11.55;;;7.55;;
65665;SDS011;52365;47.464;18.976;2023-03-14T03:36:04;12.77;;;7.78;;
65665;SDS011;52365;47.464;18.976;2023-03-14T03:36:40;12.68;;;7.30;;
65665;SDS011;52365;47.464;18.976;2023-03-14T03:37:17;11.43;;;7.68;;
65665;SDS011;52365;47.464;18.976;2023-03-14T03:37:53;12.18;;;7.97;;
65665;SDS011;52365;47.464;18.976;2023-03-14T03:38:29;10.82;;;7.40;;
65665;SDS011;52365;47.464;18.976;2023-03-14T03:39:05;12.60;;;7.43;;
65665;SDS011;52365;47.464;18.976;2023-03-14T03:39:42;11.32;;;7.72;;
65665;SDS011;52365;47.464;18.976;2023-03-14T03:40:18;10.50;;;7.28;;
65665;SDS011;52365;47.464;18.976;2023-03-14T03:40:54;10.68;;;7.43;;
65665;SDS011;52365;47.464;18.976;2023-03-14T03:41:30;11.85;;;7.40;;
65665;SDS011;52365;47.464;18.976;2023-03-14T03:42:06;12.73;;;8.00;;
65665;SDS011;52365;47.464;18.976;2023-03-14T03:42:42;11.45;;;7.60;;
65665;SDS011;52365;47.464;18.976;2023-03-14T03:43:18;11.25;;;7.28;;
65665;SDS011;52365;47.464;18.976;2023-03-14T03:43:54;11.35;;;7.35;;
65665;SDS011;52365;47.464;18.976;2023-03-14T03:44:31;12.93;;;7.68;;
65665;SDS011;52365;47.464;18.976;2023-03-14T03:45:07;10.93;;;7.47;;
65665;SDS011;52365;47.464;18.976;2023-03-14T03:45:44;11.35;;;7.20;;
65665;SDS011;52365;47.464;18.976;2023-03-14T03:46:20;13.10;;;7.35;;
65665;SDS011;52365;47.464;18.976;2023-03-14T03:46:56;10.82;;;7.53;;
65665;SDS011;52365;47.464;18.976;2023-03-14T03:47:32;12.30;;;7.60;;